Eareckson Air Station Shemya US
ICAO: PASY
IATA:
Category: Medium
Scheduled Services:

Elevation: 95 ft
TransAlt. 18000 ft.

Airport Communications:
ASOS:135.65
ANCHORAGE CNTR:119.1
CTAF:127.2

PASY Zoom In..

Runways:

(A) RW 10 length 10004 ft width 150 ft
---- / hdg 105

(B) RW 28 length 10004 ft width 150 ft
ILS 110.10 / hdg 285

Location; PASY
Day. 21 / Time. 23.58 Zulu
* Altimeter: 30.27
* Temperature: 10° c. 50°f.
* Wind from: 200° Speed 04 kn.
Dewpoint: 08° c.
Visibility: 10 Statute Miles.
Clouds: Scattered 1500 ft.
Clouds: Overcast 4300 ft.

PASY 212358Z 20004KT 10SM SCT015 OVC043 10/08 A3027 RMK AO2A SLP54 T00940075 10105 20072 51009 RVRNO PNO $

Going to: --> -->


Wind From 200°
Speed 04 kn.

 
 
jpsmedia worldairports.se 2020   terms of use